createdAt,value
2022-11-23T00:01:27.535Z,99524.25
2022-11-23T00:03:57.334Z,99526.88
2022-11-23T00:06:26.186Z,99524.31
2022-11-23T00:08:54.347Z,99524.25
2022-11-23T00:11:23.276Z,99529.34
2022-11-23T00:13:51.521Z,99531.06
2022-11-23T00:16:23.928Z,99532.78
2022-11-23T00:18:58.839Z,99525.94
2022-11-23T00:21:28.603Z,99542.97
2022-11-23T00:23:55.962Z,99541.25
2022-11-23T00:26:23.291Z,99541.25
2022-11-23T00:28:50.844Z,99526.75
2022-11-23T00:31:20.494Z,99537.91
2022-11-23T00:33:53.119Z,99534.56
2022-11-23T00:36:21.480Z,99534.56
2022-11-23T00:38:49.724Z,99544.75
2022-11-23T00:41:19.729Z,99535.34
2022-11-23T00:43:47.365Z,99537.91
2022-11-23T00:46:21.664Z,99540.44
2022-11-23T00:48:50.857Z,99543.00
2022-11-23T00:51:29.299Z,99537.06
2022-11-23T00:53:57.363Z,99520.88
2022-11-23T00:56:26.280Z,99516.59
2022-11-23T00:58:55.449Z,99526.03
2022-11-23T01:01:25.156Z,99520.06
2022-11-23T01:03:58.661Z,99522.63
2022-11-23T01:06:38.241Z,99508.19
2022-11-23T01:09:14.736Z,99517.53
2022-11-23T01:11:42.110Z,99517.53
2022-11-23T01:14:09.386Z,99520.97
2022-11-23T01:16:40.897Z,99520.97
2022-11-23T01:19:15.690Z,99527.75
2022-11-23T01:21:43.368Z,99524.41
2022-11-23T01:24:21.961Z,99520.97
2022-11-23T01:26:53.678Z,99522.66
2022-11-23T01:29:21.399Z,99525.28
2022-11-23T01:31:48.939Z,99522.75
2022-11-23T01:34:17.330Z,99522.75
2022-11-23T01:36:45.620Z,99532.94
2022-11-23T01:39:13.240Z,99538.06
2022-11-23T01:41:42.568Z,99536.31
2022-11-23T01:44:30.863Z,99542.31
2022-11-23T01:47:03.809Z,99538.06
2022-11-23T01:49:41.341Z,99534.59
2022-11-23T01:52:15.531Z,99541.44
2022-11-23T01:54:50.551Z,99549.97
2022-11-23T01:57:34.719Z,99541.47
2022-11-23T02:00:02.174Z,99536.34
2022-11-23T02:02:45.992Z,99549.16
2022-11-23T02:05:15.161Z,99528.56
2022-11-23T02:07:47.181Z,99546.53
2022-11-23T02:10:16.032Z,99547.50
2022-11-23T02:12:43.210Z,99545.78
2022-11-23T02:15:12.685Z,99545.84
2022-11-23T02:17:43.339Z,99536.50
2022-11-23T02:20:18.044Z,99536.47
2022-11-23T02:22:57.585Z,99528.03
2022-11-23T02:25:46.049Z,99533.13
2022-11-23T02:28:20.049Z,99529.72
2022-11-23T02:30:50.642Z,99528.03
2022-11-23T02:33:17.874Z,99523.72
2022-11-23T02:36:00.124Z,99519.47
2022-11-23T02:38:33.563Z,99519.44
2022-11-23T02:41:01.420Z,99521.19
2022-11-23T02:43:28.663Z,99522.03
2022-11-23T02:46:03.348Z,99523.69
2022-11-23T02:48:30.710Z,99539.88
2022-11-23T02:50:57.825Z,99538.22
2022-11-23T02:53:25.006Z,99534.81
2022-11-23T02:55:54.242Z,99527.94
2022-11-23T02:58:21.562Z,99541.59
2022-11-23T03:00:48.804Z,99553.50
2022-11-23T03:03:19.440Z,99543.22
2022-11-23T03:05:46.593Z,99541.56
2022-11-23T03:08:13.934Z,99538.22
2022-11-23T03:10:41.122Z,99539.91
2022-11-23T03:13:08.932Z,99533.97
2022-11-23T03:15:38.352Z,99538.25
2022-11-23T03:18:06.319Z,99527.13
2022-11-23T03:20:33.912Z,99540.81
2022-11-23T03:23:01.006Z,99534.81
2022-11-23T03:25:28.239Z,99528.81
2022-11-23T03:27:56.850Z,99540.00
2022-11-23T03:30:24.000Z,99540.00
2022-11-23T03:32:51.599Z,99533.16
2022-11-23T03:35:19.882Z,99539.94
2022-11-23T03:38:22.760Z,99538.25
2022-11-23T03:40:51.403Z,99528.03
2022-11-23T03:43:27.244Z,99525.56
2022-11-23T03:45:54.452Z,99528.09
2022-11-23T03:48:22.930Z,99530.66
2022-11-23T03:50:50.124Z,99518.78
2022-11-23T03:53:17.292Z,99526.44
2022-11-23T03:55:48.730Z,99516.25
2022-11-23T03:58:15.972Z,99516.25
2022-11-23T04:00:43.207Z,99515.41
2022-11-23T04:03:12.601Z,99523.91
2022-11-23T04:06:02.763Z,99521.34
2022-11-23T04:08:48.613Z,99512.84
2022-11-23T04:11:23.599Z,99526.44
2022-11-23T04:13:51.081Z,99516.22
2022-11-23T04:16:19.808Z,99528.16
2022-11-23T04:18:47.040Z,99519.69
2022-11-23T04:21:14.294Z,99519.69
2022-11-23T04:23:41.448Z,99514.59
2022-11-23T04:26:11.089Z,99516.28
2022-11-23T04:28:41.801Z,99515.44
2022-11-23T04:31:09.033Z,99522.28
2022-11-23T04:33:47.996Z,99521.38
2022-11-23T04:36:17.529Z,99509.53
2022-11-23T04:38:44.995Z,99514.63
2022-11-23T04:41:15.525Z,99509.50
2022-11-23T04:43:42.610Z,99513.81
2022-11-23T04:46:11.914Z,99511.22
2022-11-23T04:48:39.159Z,99514.63
2022-11-23T04:51:06.651Z,99528.25
2022-11-23T04:53:37.873Z,99529.00
2022-11-23T04:56:05.600Z,99546.09
2022-11-23T04:58:36.976Z,99545.25
2022-11-23T05:01:05.309Z,99545.22
2022-11-23T05:03:37.294Z,99541.84
2022-11-23T05:06:08.038Z,99535.06
2022-11-23T05:08:40.128Z,99537.66
2022-11-23T05:11:30.006Z,99541.84
2022-11-23T05:13:59.679Z,99541.84
2022-11-23T05:16:27.756Z,99545.28
2022-11-23T05:18:54.962Z,99541.03
2022-11-23T05:21:22.441Z,99550.41
2022-11-23T05:23:50.048Z,99534.22
2022-11-23T05:26:19.162Z,99548.72
2022-11-23T05:28:46.539Z,99527.34
2022-11-23T05:31:15.857Z,99541.94
2022-11-23T05:33:46.009Z,99540.19
2022-11-23T05:36:14.886Z,99545.28
2022-11-23T05:38:42.759Z,99531.59
2022-11-23T05:41:19.122Z,99545.28
2022-11-23T05:43:47.319Z,99545.34
2022-11-23T05:46:19.729Z,99548.72
2022-11-23T05:48:47.168Z,99557.28
2022-11-23T05:51:14.321Z,99557.28
2022-11-23T05:53:45.768Z,99561.44
2022-11-23T05:56:37.288Z,99567.47
2022-11-23T05:59:19.731Z,99559.81
2022-11-23T06:01:52.419Z,99560.72
2022-11-23T06:04:30.406Z,99564.13
2022-11-23T06:07:01.338Z,99567.56
2022-11-23T06:09:39.969Z,99559.00
2022-11-23T06:12:09.879Z,99569.22
2022-11-23T06:14:37.400Z,99557.31
2022-11-23T06:17:04.812Z,99558.13
2022-11-23T06:19:39.320Z,99569.25
2022-11-23T06:22:06.479Z,99572.66
2022-11-23T06:24:39.602Z,99576.94
2022-11-23T06:27:32.920Z,99575.25
2022-11-23T06:30:03.431Z,99586.28
2022-11-23T06:32:32.219Z,99581.19
2022-11-23T06:35:01.114Z,99579.44
2022-11-23T06:37:32.315Z,99593.09
2022-11-23T06:39:59.476Z,99585.38
2022-11-23T06:42:42.047Z,99578.56
2022-11-23T06:45:17.352Z,99575.94
2022-11-23T06:47:45.489Z,99588.78
2022-11-23T06:50:14.654Z,99584.56
2022-11-23T06:52:43.488Z,99581.16
2022-11-23T06:55:10.634Z,99593.09
2022-11-23T06:57:37.730Z,99583.69
2022-11-23T07:00:05.599Z,99596.44
2022-11-23T07:02:37.003Z,99600.66
2022-11-23T07:05:04.250Z,99591.38
2022-11-23T07:07:33.232Z,99603.28
2022-11-23T07:10:08.499Z,99601.59
2022-11-23T07:12:44.192Z,99602.41
2022-11-23T07:15:12.173Z,99603.25
2022-11-23T07:17:41.701Z,99605.81
2022-11-23T07:20:11.962Z,99604.94
2022-11-23T07:22:40.361Z,99608.38
2022-11-23T07:25:08.432Z,99595.56
2022-11-23T07:27:35.704Z,99596.41
2022-11-23T07:30:03.844Z,99599.00
2022-11-23T07:32:31.039Z,99604.09
2022-11-23T07:34:58.192Z,99611.75
2022-11-23T07:37:26.850Z,99609.97
2022-11-23T07:39:57.695Z,99616.84
2022-11-23T07:42:34.462Z,99632.13
2022-11-23T07:45:02.159Z,99620.97
2022-11-23T07:47:29.599Z,99628.69
2022-11-23T07:49:56.684Z,99626.16
2022-11-23T07:52:24.121Z,99635.53
2022-11-23T07:54:51.414Z,99638.97
2022-11-23T07:57:18.528Z,99639.84
2022-11-23T07:59:45.808Z,99637.28
2022-11-23T08:02:16.278Z,99647.53
2022-11-23T08:04:43.494Z,99656.03
2022-11-23T08:07:10.716Z,99659.38
2022-11-23T08:09:37.891Z,99660.22
2022-11-23T08:12:05.564Z,99667.06
2022-11-23T08:14:32.891Z,99663.66
2022-11-23T08:17:00.246Z,99663.66
2022-11-23T08:19:27.335Z,99666.22
2022-11-23T08:21:54.447Z,99672.97
2022-11-23T08:24:21.522Z,99657.72
2022-11-23T08:26:49.244Z,99650.84
2022-11-23T08:29:16.483Z,99655.97
2022-11-23T08:31:44.044Z,99649.19
2022-11-23T08:34:11.438Z,99656.03
2022-11-23T08:36:38.764Z,99654.31
2022-11-23T08:39:06.006Z,99645.72
2022-11-23T08:41:33.964Z,99658.56
2022-11-23T08:44:01.161Z,99653.38
2022-11-23T08:46:28.260Z,99650.03
2022-11-23T08:48:55.321Z,99644.97
2022-11-23T08:51:25.206Z,99652.56
2022-11-23T08:53:53.561Z,99652.56
2022-11-23T08:56:20.718Z,99649.13
2022-11-23T08:58:47.853Z,99640.59
2022-11-23T09:01:16.991Z,99642.34
2022-11-23T09:03:45.129Z,99644.00
2022-11-23T09:06:12.838Z,99648.25
2022-11-23T09:08:39.958Z,99650.78
2022-11-23T09:11:10.366Z,99649.97
2022-11-23T09:13:38.123Z,99653.44
2022-11-23T09:16:06.841Z,99650.91
2022-11-23T09:18:35.630Z,99645.81
2022-11-23T09:21:04.949Z,99644.09
2022-11-23T09:23:32.290Z,99656.03
2022-11-23T09:26:00.551Z,99645.81
2022-11-23T09:28:28.760Z,99649.19
2022-11-23T09:30:57.441Z,99652.56
2022-11-23T09:33:25.667Z,99655.13
2022-11-23T09:36:00.809Z,99656.81
2022-11-23T09:38:51.552Z,99659.44
2022-11-23T09:41:49.780Z,99653.53
2022-11-23T09:44:35.552Z,99662.91
2022-11-23T09:47:02.769Z,99657.81
2022-11-23T09:49:40.411Z,99651.06
2022-11-23T09:52:18.616Z,99643.41
2022-11-23T09:54:48.618Z,99644.34
2022-11-23T09:57:22.735Z,99634.09
2022-11-23T10:00:06.859Z,99646.03
2022-11-23T10:02:40.933Z,99645.16
2022-11-23T10:05:14.802Z,99643.47
2022-11-23T10:07:56.512Z,99642.59
2022-11-23T10:10:44.329Z,99640.13
2022-11-23T10:13:27.476Z,99634.16
2022-11-23T10:16:15.271Z,99636.72
2022-11-23T10:18:48.162Z,99638.44
2022-11-23T10:21:30.579Z,99632.50
2022-11-23T10:24:19.483Z,99629.91
2022-11-23T10:26:49.943Z,99608.53
2022-11-23T10:29:25.700Z,99629.16
2022-11-23T10:31:57.228Z,99616.41
2022-11-23T10:35:07.146Z,99625.84
2022-11-23T10:37:34.793Z,99611.25
2022-11-23T10:40:02.050Z,99623.28
2022-11-23T10:42:42.643Z,99624.13
2022-11-23T10:45:24.051Z,99615.63
2022-11-23T10:47:59.882Z,99620.75
2022-11-23T10:50:30.230Z,99615.63
2022-11-23T10:53:01.582Z,99619.03
2022-11-23T10:55:55.111Z,99613.06
2022-11-23T10:58:29.840Z,99608.78
2022-11-23T11:01:06.891Z,99605.31
2022-11-23T11:03:35.598Z,99613.84
2022-11-23T11:06:11.357Z,99613.84
2022-11-23T11:08:53.969Z,99607.94
2022-11-23T11:11:29.641Z,99601.97
2022-11-23T11:14:15.776Z,99601.16
2022-11-23T11:16:53.591Z,99596.91
2022-11-23T11:19:35.566Z,99600.28
2022-11-23T11:22:24.706Z,99597.63
2022-11-23T11:24:52.018Z,99591.59
2022-11-23T11:27:24.698Z,99596.75
2022-11-23T11:29:55.808Z,99593.28
2022-11-23T11:32:41.538Z,99589.94
2022-11-23T11:35:26.325Z,99592.44
2022-11-23T11:38:00.771Z,99583.97
2022-11-23T11:40:38.041Z,99587.41
2022-11-23T11:43:39.484Z,99567.75
2022-11-23T11:46:31.632Z,99583.19
2022-11-23T11:49:15.121Z,99584.91
2022-11-23T11:51:47.718Z,99591.69
2022-11-23T11:54:37.275Z,99583.16
2022-11-23T11:57:15.042Z,99584.91
2022-11-23T11:59:47.399Z,99580.63
2022-11-23T12:02:49.325Z,99578.09
2022-11-23T12:05:28.484Z,99580.69
2022-11-23T12:08:14.401Z,99584.97
2022-11-23T12:10:51.301Z,99584.16
2022-11-23T12:13:32.422Z,99584.16
2022-11-23T12:16:11.326Z,99587.56
2022-11-23T12:18:51.119Z,99579.09
2022-11-23T12:22:09.081Z,99590.16
2022-11-23T12:25:02.512Z,99590.16
2022-11-23T12:28:05.005Z,99583.25
2022-11-23T12:30:50.238Z,99588.38
2022-11-23T12:33:42.679Z,99588.38
2022-11-23T12:36:44.009Z,99578.19
2022-11-23T12:39:41.889Z,99590.97
2022-11-23T12:42:38.040Z,99578.22
2022-11-23T12:45:39.007Z,99585.06
2022-11-23T12:48:06.516Z,99584.25
2022-11-23T12:50:39.316Z,99581.69
2022-11-23T12:53:21.135Z,99576.56
2022-11-23T12:56:06.711Z,99583.38
2022-11-23T12:58:35.079Z,99563.66
2022-11-23T13:01:13.550Z,99590.22
2022-11-23T13:04:10.424Z,99591.94
2022-11-23T13:10:04.249Z,99599.59
2022-11-23T13:12:53.040Z,99604.66
2022-11-23T13:15:58.004Z,99602.09
2022-11-23T13:18:37.300Z,99602.06
2022-11-23T13:21:29.794Z,99608.00
2022-11-23T13:23:57.240Z,99603.72
2022-11-23T13:26:28.420Z,99593.41
2022-11-23T13:29:01.691Z,99608.91
2022-11-23T13:31:31.789Z,99607.16
2022-11-23T13:34:00.469Z,99603.72
2022-11-23T13:36:56.548Z,99604.59
2022-11-23T13:39:52.041Z,99606.31
2022-11-23T13:42:20.028Z,99602.88
2022-11-23T13:44:47.210Z,99608.81
2022-11-23T13:47:17.259Z,99602.88
2022-11-23T13:49:52.330Z,99607.13
2022-11-23T13:52:22.659Z,99614.69
2022-11-23T13:55:09.301Z,99609.59
2022-11-23T13:57:42.672Z,99615.59
2022-11-23T14:00:48.073Z,99613.00
2022-11-23T14:03:43.272Z,99621.50
2022-11-23T14:06:43.680Z,99615.50
2022-11-23T14:09:19.881Z,99618.94
2022-11-23T14:12:07.954Z,99615.50
2022-11-23T14:14:44.073Z,99619.81
2022-11-23T14:17:40.929Z,99615.50
2022-11-23T14:20:35.329Z,99615.47
2022-11-23T14:23:25.124Z,99618.09
2022-11-23T14:26:16.972Z,99620.56
2022-11-23T14:29:14.594Z,99624.81
2022-11-23T14:32:09.754Z,99635.84
2022-11-23T14:35:01.843Z,99635.03
2022-11-23T14:38:03.001Z,99643.53
2022-11-23T14:41:05.369Z,99643.53
2022-11-23T14:43:34.814Z,99634.94
2022-11-23T14:46:04.410Z,99641.81
2022-11-23T14:48:35.182Z,99640.97
2022-11-23T14:51:12.700Z,99649.47
2022-11-23T14:53:47.004Z,99657.97
2022-11-23T14:56:35.722Z,99654.53
2022-11-23T14:59:25.730Z,99664.72
2022-11-23T15:01:55.855Z,99666.47
2022-11-23T15:04:34.305Z,99674.13
2022-11-23T15:07:07.097Z,99673.28
2022-11-23T15:09:46.114Z,99680.03
2022-11-23T15:12:26.336Z,99673.28
2022-11-23T15:14:54.332Z,99667.28
2022-11-23T15:17:22.963Z,99667.28
2022-11-23T15:20:01.006Z,99667.28
2022-11-23T15:22:29.588Z,99669.84
2022-11-23T15:25:08.593Z,99666.44
2022-11-23T15:27:40.330Z,99666.47
2022-11-23T15:30:37.650Z,99670.72
2022-11-23T15:33:11.753Z,99663.13
2022-11-23T15:35:40.844Z,99668.22
2022-11-23T15:38:16.640Z,99668.22
2022-11-23T15:40:48.736Z,99637.31
2022-11-23T15:43:20.365Z,99659.63
2022-11-23T15:45:47.572Z,99664.72
2022-11-23T15:48:27.644Z,99661.34
2022-11-23T15:51:03.384Z,99663.88
2022-11-23T15:53:30.517Z,99659.69
2022-11-23T15:56:06.221Z,99651.09
2022-11-23T15:58:35.477Z,99657.97
2022-11-23T16:01:13.617Z,99656.25
2022-11-23T16:03:42.876Z,99661.38
2022-11-23T16:06:16.962Z,99666.44
2022-11-23T16:08:44.204Z,99664.78
2022-11-23T16:11:33.888Z,99664.78
2022-11-23T16:14:19.082Z,99669.88
2022-11-23T16:16:48.729Z,99665.63
2022-11-23T16:19:29.702Z,99672.38
2022-11-23T16:22:02.789Z,99669.84
2022-11-23T16:24:32.916Z,99659.53
2022-11-23T16:27:01.523Z,99669.88
2022-11-23T16:29:36.880Z,99664.69
2022-11-23T16:32:07.376Z,99674.94
2022-11-23T16:34:35.175Z,99668.94
2022-11-23T16:37:04.192Z,99681.75
2022-11-23T16:39:31.412Z,99683.41
2022-11-23T16:41:58.509Z,99669.78
2022-11-23T16:44:25.739Z,99683.47
2022-11-23T16:46:53.017Z,99680.09
2022-11-23T16:49:23.640Z,99670.69
2022-11-23T16:51:56.993Z,99674.88
2022-11-23T16:54:25.556Z,99679.19
2022-11-23T16:56:53.469Z,99675.75
2022-11-23T16:59:20.940Z,99675.75
2022-11-23T17:01:53.999Z,99676.56
2022-11-23T17:04:24.736Z,99684.22
2022-11-23T17:06:51.965Z,99680.00
2022-11-23T17:09:19.064Z,99685.09
2022-11-23T17:11:50.661Z,99688.56
2022-11-23T17:14:19.676Z,99678.38
2022-11-23T17:16:47.995Z,99674.94
2022-11-23T17:19:20.283Z,99673.31
2022-11-23T17:21:47.567Z,99669.91
2022-11-23T17:24:14.722Z,99666.47
2022-11-23T17:26:46.718Z,99675.06
2022-11-23T17:29:19.234Z,99669.97
2022-11-23T17:31:47.762Z,99676.81
2022-11-23T17:34:15.848Z,99678.47
2022-11-23T17:36:45.642Z,99677.66
2022-11-23T17:39:20.289Z,99675.06
2022-11-23T17:41:48.362Z,99676.81
2022-11-23T17:44:16.662Z,99672.56
2022-11-23T17:46:45.074Z,99678.56
2022-11-23T17:49:14.372Z,99677.69
2022-11-23T17:51:41.564Z,99682.75
2022-11-23T17:54:08.943Z,99678.50
2022-11-23T17:56:36.461Z,99667.31
2022-11-23T17:59:04.369Z,99680.16
2022-11-23T18:01:31.678Z,99678.50
2022-11-23T18:04:01.264Z,99683.66
2022-11-23T18:06:29.684Z,99680.22
2022-11-23T18:08:57.321Z,99681.94
2022-11-23T18:11:25.012Z,99678.50
2022-11-23T18:13:52.538Z,99677.66
2022-11-23T18:16:21.375Z,99677.63
2022-11-23T18:18:49.768Z,99674.22
2022-11-23T18:21:17.612Z,99685.22
2022-11-23T18:23:45.221Z,99678.38
2022-11-23T18:26:21.249Z,99680.13
2022-11-23T18:28:50.054Z,99681.81
2022-11-23T18:31:18.349Z,99678.41
2022-11-23T18:33:46.803Z,99675.75
2022-11-23T18:36:14.405Z,99676.59
2022-11-23T18:38:45.124Z,99678.31
2022-11-23T18:41:14.680Z,99680.03
2022-11-23T18:43:42.622Z,99678.22
2022-11-23T18:46:11.712Z,99676.59
2022-11-23T18:48:39.170Z,99674.88
2022-11-23T18:51:06.589Z,99667.97
2022-11-23T18:53:33.928Z,99673.09
2022-11-23T18:56:05.323Z,99667.13
2022-11-23T18:58:34.122Z,99679.88
2022-11-23T19:01:13.215Z,99679.88
2022-11-23T19:03:44.801Z,99681.59
2022-11-23T19:06:13.923Z,99685.84
2022-11-23T19:08:43.205Z,99686.66
2022-11-23T19:11:17.841Z,99691.75
2022-11-23T19:13:47.457Z,99697.72
2022-11-23T19:16:23.118Z,99686.63
2022-11-23T19:18:55.108Z,99699.31
2022-11-23T19:21:24.863Z,99707.81
2022-11-23T19:23:53.300Z,99703.56
2022-11-23T19:26:23.727Z,99707.81
2022-11-23T19:28:52.412Z,99708.63
2022-11-23T19:31:24.844Z,99710.28
2022-11-23T19:33:54.316Z,99711.88
2022-11-23T19:36:24.362Z,99715.28
2022-11-23T19:38:52.374Z,99716.03
2022-11-23T19:41:23.030Z,99720.28
2022-11-23T19:43:55.710Z,99716.88
2022-11-23T19:46:23.982Z,99712.53
2022-11-23T19:48:51.321Z,99709.16
2022-11-23T19:51:20.459Z,99706.44
2022-11-23T19:53:49.456Z,99705.59
2022-11-23T19:56:19.733Z,99713.19
2022-11-23T19:58:50.572Z,99706.41
2022-11-23T20:01:19.577Z,99702.97
2022-11-23T20:03:48.958Z,99701.25
2022-11-23T20:06:28.392Z,99702.09
2022-11-23T20:09:00.846Z,99716.66
2022-11-23T20:11:31.720Z,99708.03
2022-11-23T20:13:59.203Z,99716.53
2022-11-23T20:16:28.980Z,99721.63
2022-11-23T20:18:59.292Z,99726.75
2022-11-23T20:21:28.111Z,99725.03
2022-11-23T20:24:01.464Z,99724.94
2022-11-23T20:26:32.790Z,99698.41
2022-11-23T20:28:59.963Z,99734.38
2022-11-23T20:31:29.602Z,99729.06
2022-11-23T20:33:57.474Z,99743.56
2022-11-23T20:36:30.142Z,99742.66
2022-11-23T20:38:58.080Z,99739.31
2022-11-23T20:41:30.411Z,99757.06
2022-11-23T20:44:00.376Z,99748.56
2022-11-23T20:46:59.883Z,99748.59
2022-11-23T20:49:17.602Z,99743.56
2022-11-23T20:51:44.712Z,99740.19
2022-11-23T20:54:12.431Z,99755.53
2022-11-23T20:56:39.648Z,99747.06
2022-11-23T20:59:07.045Z,99750.44
2022-11-23T21:01:34.808Z,99754.66
2022-11-23T21:04:02.276Z,99752.06
2022-11-23T21:06:30.117Z,99746.00
2022-11-23T21:08:59.782Z,99754.50
2022-11-23T21:11:47.439Z,99758.75
2022-11-23T21:14:24.711Z,99746.75
2022-11-23T21:16:55.364Z,99748.28
2022-11-23T21:19:30.696Z,99760.28
2022-11-23T21:21:59.299Z,99751.00
2022-11-23T21:24:26.808Z,99760.41
2022-11-23T21:26:54.038Z,99760.41
2022-11-23T21:29:21.373Z,99763.69
2022-11-23T21:31:49.462Z,99770.47
2022-11-23T21:34:27.531Z,99761.88
2022-11-23T21:36:56.716Z,99768.66
2022-11-23T21:39:24.528Z,99769.47
2022-11-23T21:41:53.721Z,99770.41
2022-11-23T21:44:22.306Z,99765.38
2022-11-23T21:46:49.741Z,99773.88
2022-11-23T21:49:17.231Z,99775.69
2022-11-23T21:51:46.009Z,99770.59
2022-11-23T21:54:15.982Z,99759.38
2022-11-23T21:56:45.008Z,99756.84
2022-11-23T21:59:12.683Z,99761.19
2022-11-23T22:01:41.100Z,99757.81
2022-11-23T22:04:11.507Z,99757.00
2022-11-23T22:06:40.001Z,99770.63
2022-11-23T22:09:09.797Z,99766.28
2022-11-23T22:11:41.314Z,99772.28
2022-11-23T22:14:14.026Z,99770.59
2022-11-23T22:16:42.791Z,99767.03
2022-11-23T22:19:12.485Z,99785.75
2022-11-23T22:21:41.148Z,99791.69
2022-11-23T22:24:12.913Z,99782.25
2022-11-23T22:26:40.520Z,99786.38
2022-11-23T22:29:08.007Z,99783.78
2022-11-23T22:31:36.352Z,99772.75
2022-11-23T22:34:10.648Z,99779.59
2022-11-23T22:36:38.131Z,99774.50
2022-11-23T22:39:07.100Z,99777.09
2022-11-23T22:41:37.624Z,99777.09
2022-11-23T22:44:07.856Z,99779.59
2022-11-23T22:46:35.808Z,99779.66
2022-11-23T22:49:03.389Z,99786.53
2022-11-23T22:51:30.911Z,99777.16
2022-11-23T22:54:00.133Z,99789.16
2022-11-23T22:56:29.164Z,99790.91
2022-11-23T22:58:57.032Z,99796.06
2022-11-23T23:01:26.976Z,99795.16
2022-11-23T23:03:56.123Z,99798.50
2022-11-23T23:06:26.079Z,99804.38
2022-11-23T23:08:58.507Z,99795.06
2022-11-23T23:11:28.257Z,99801.03
2022-11-23T23:13:56.195Z,99802.75
2022-11-23T23:16:24.232Z,99799.34
2022-11-23T23:18:51.881Z,99799.34
2022-11-23T23:21:21.428Z,99795.16
2022-11-23T23:23:54.032Z,99794.25
2022-11-23T23:26:23.909Z,99795.94
2022-11-23T23:28:59.323Z,99795.88
2022-11-23T23:31:27.921Z,99793.34
2022-11-23T23:33:55.306Z,99790.78
2022-11-23T23:36:24.112Z,99802.69
2022-11-23T23:38:51.988Z,99801.03
2022-11-23T23:41:19.687Z,99796.69
2022-11-23T23:43:48.480Z,99790.69
2022-11-23T23:46:16.195Z,99778.69
2022-11-23T23:48:44.201Z,99789.00
2022-11-23T23:51:15.783Z,99789.84
2022-11-23T23:53:44.422Z,99778.63
2022-11-23T23:56:17.066Z,99791.47
2022-11-23T23:58:45.172Z,99792.31
